sensor_id;sensor_type;location;lat;lon;timestamp;P1;durP1;ratioP1;P2;durP2;ratioP2
60610;SDS011;46439;51.164;13.572;2023-06-05T00:00:43;4.40;;;2.70;;
60610;SDS011;46439;51.164;13.572;2023-06-05T00:03:11;3.30;;;2.20;;
60610;SDS011;46439;51.164;13.572;2023-06-05T00:05:40;5.50;;;2.50;;
60610;SDS011;46439;51.164;13.572;2023-06-05T00:08:09;3.30;;;2.30;;
60610;SDS011;46439;51.164;13.572;2023-06-05T00:10:38;4.00;;;2.40;;
60610;SDS011;46439;51.164;13.572;2023-06-05T00:13:06;4.10;;;2.30;;
60610;SDS011;46439;51.164;13.572;2023-06-05T00:15:35;4.30;;;2.30;;
60610;SDS011;46439;51.164;13.572;2023-06-05T00:18:04;4.90;;;2.60;;
60610;SDS011;46439;51.164;13.572;2023-06-05T00:20:33;6.90;;;2.50;;
60610;SDS011;46439;51.164;13.572;2023-06-05T00:23:01;5.40;;;2.50;;
60610;SDS011;46439;51.164;13.572;2023-06-05T00:25:30;6.10;;;2.60;;
60610;SDS011;46439;51.164;13.572;2023-06-05T00:27:58;5.60;;;2.60;;
60610;SDS011;46439;51.164;13.572;2023-06-05T00:30:27;7.00;;;3.00;;
60610;SDS011;46439;51.164;13.572;2023-06-05T00:32:56;4.70;;;2.30;;
60610;SDS011;46439;51.164;13.572;2023-06-05T00:35:24;3.60;;;2.40;;
60610;SDS011;46439;51.164;13.572;2023-06-05T00:37:53;3.50;;;2.30;;
60610;SDS011;46439;51.164;13.572;2023-06-05T00:40:22;3.70;;;2.40;;
60610;SDS011;46439;51.164;13.572;2023-06-05T00:42:51;4.70;;;2.50;;
60610;SDS011;46439;51.164;13.572;2023-06-05T00:45:19;5.40;;;2.40;;
60610;SDS011;46439;51.164;13.572;2023-06-05T00:47:48;4.40;;;2.40;;
60610;SDS011;46439;51.164;13.572;2023-06-05T00:50:17;5.00;;;2.50;;
60610;SDS011;46439;51.164;13.572;2023-06-05T00:52:48;4.00;;;2.50;;
60610;SDS011;46439;51.164;13.572;2023-06-05T00:55:18;4.40;;;2.70;;
60610;SDS011;46439;51.164;13.572;2023-06-05T00:57:47;4.60;;;2.50;;
60610;SDS011;46439;51.164;13.572;2023-06-05T01:00:15;6.40;;;2.80;;
60610;SDS011;46439;51.164;13.572;2023-06-05T01:02:45;5.70;;;3.00;;
60610;SDS011;46439;51.164;13.572;2023-06-05T01:05:14;6.40;;;2.80;;
60610;SDS011;46439;51.164;13.572;2023-06-05T01:07:44;5.50;;;2.80;;
60610;SDS011;46439;51.164;13.572;2023-06-05T01:10:14;4.40;;;2.50;;
60610;SDS011;46439;51.164;13.572;2023-06-05T01:12:46;6.30;;;2.70;;
60610;SDS011;46439;51.164;13.572;2023-06-05T01:15:24;5.80;;;3.00;;
60610;SDS011;46439;51.164;13.572;2023-06-05T01:17:58;3.10;;;2.40;;
60610;SDS011;46439;51.164;13.572;2023-06-05T01:20:32;7.60;;;3.00;;
60610;SDS011;46439;51.164;13.572;2023-06-05T01:23:02;6.50;;;2.80;;
60610;SDS011;46439;51.164;13.572;2023-06-05T01:25:31;5.00;;;2.40;;
60610;SDS011;46439;51.164;13.572;2023-06-05T01:28:04;3.00;;;2.50;;
60610;SDS011;46439;51.164;13.572;2023-06-05T01:30:42;9.00;;;2.80;;
60610;SDS011;46439;51.164;13.572;2023-06-05T01:33:22;5.30;;;2.80;;
60610;SDS011;46439;51.164;13.572;2023-06-05T01:35:53;6.50;;;2.50;;
60610;SDS011;46439;51.164;13.572;2023-06-05T01:38:22;5.80;;;2.90;;
60610;SDS011;46439;51.164;13.572;2023-06-05T01:40:52;6.80;;;2.80;;
60610;SDS011;46439;51.164;13.572;2023-06-05T01:43:21;5.40;;;2.80;;
60610;SDS011;46439;51.164;13.572;2023-06-05T01:45:50;3.80;;;2.40;;
60610;SDS011;46439;51.164;13.572;2023-06-05T01:48:19;5.00;;;3.10;;
60610;SDS011;46439;51.164;13.572;2023-06-05T01:50:50;5.40;;;2.70;;
60610;SDS011;46439;51.164;13.572;2023-06-05T01:53:23;4.50;;;2.50;;
60610;SDS011;46439;51.164;13.572;2023-06-05T01:55:54;7.30;;;2.80;;
60610;SDS011;46439;51.164;13.572;2023-06-05T01:58:26;3.80;;;2.70;;
60610;SDS011;46439;51.164;13.572;2023-06-05T02:00:55;4.70;;;2.30;;
60610;SDS011;46439;51.164;13.572;2023-06-05T02:03:23;3.50;;;2.20;;
60610;SDS011;46439;51.164;13.572;2023-06-05T02:05:52;4.50;;;2.70;;
60610;SDS011;46439;51.164;13.572;2023-06-05T02:08:21;5.30;;;2.70;;
60610;SDS011;46439;51.164;13.572;2023-06-05T02:10:49;7.40;;;2.60;;
60610;SDS011;46439;51.164;13.572;2023-06-05T02:13:19;6.60;;;3.00;;
60610;SDS011;46439;51.164;13.572;2023-06-05T02:15:50;4.40;;;2.90;;
60610;SDS011;46439;51.164;13.572;2023-06-05T02:18:22;5.50;;;2.40;;
60610;SDS011;46439;51.164;13.572;2023-06-05T02:20:54;4.00;;;2.60;;
60610;SDS011;46439;51.164;13.572;2023-06-05T02:23:22;3.80;;;2.60;;
60610;SDS011;46439;51.164;13.572;2023-06-05T02:25:51;5.50;;;2.50;;
60610;SDS011;46439;51.164;13.572;2023-06-05T02:28:19;4.20;;;2.80;;
60610;SDS011;46439;51.164;13.572;2023-06-05T02:30:48;4.10;;;2.60;;
60610;SDS011;46439;51.164;13.572;2023-06-05T02:33:16;4.20;;;2.80;;
60610;SDS011;46439;51.164;13.572;2023-06-05T02:35:45;4.40;;;2.60;;
60610;SDS011;46439;51.164;13.572;2023-06-05T02:38:14;6.30;;;2.90;;
60610;SDS011;46439;51.164;13.572;2023-06-05T02:40:43;3.90;;;2.60;;
60610;SDS011;46439;51.164;13.572;2023-06-05T02:43:11;4.60;;;2.70;;
60610;SDS011;46439;51.164;13.572;2023-06-05T02:45:41;4.20;;;2.50;;
60610;SDS011;46439;51.164;13.572;2023-06-05T02:48:12;7.00;;;2.80;;
60610;SDS011;46439;51.164;13.572;2023-06-05T02:50:40;3.20;;;2.40;;
60610;SDS011;46439;51.164;13.572;2023-06-05T02:53:09;4.30;;;2.70;;
60610;SDS011;46439;51.164;13.572;2023-06-05T02:55:38;8.50;;;2.90;;
60610;SDS011;46439;51.164;13.572;2023-06-05T02:58:06;4.90;;;2.80;;
60610;SDS011;46439;51.164;13.572;2023-06-05T03:00:35;3.90;;;2.80;;
60610;SDS011;46439;51.164;13.572;2023-06-05T03:03:04;5.40;;;2.90;;
60610;SDS011;46439;51.164;13.572;2023-06-05T03:05:33;6.30;;;3.00;;
60610;SDS011;46439;51.164;13.572;2023-06-05T03:08:02;7.30;;;3.20;;
60610;SDS011;46439;51.164;13.572;2023-06-05T03:10:34;4.00;;;2.80;;
60610;SDS011;46439;51.164;13.572;2023-06-05T03:13:03;5.20;;;3.00;;
60610;SDS011;46439;51.164;13.572;2023-06-05T03:15:31;5.50;;;2.80;;
60610;SDS011;46439;51.164;13.572;2023-06-05T03:18:01;4.90;;;2.80;;
60610;SDS011;46439;51.164;13.572;2023-06-05T03:20:29;4.00;;;3.00;;
60610;SDS011;46439;51.164;13.572;2023-06-05T03:22:58;14.50;;;3.60;;
60610;SDS011;46439;51.164;13.572;2023-06-05T03:25:27;6.10;;;3.20;;
60610;SDS011;46439;51.164;13.572;2023-06-05T03:27:55;6.90;;;2.90;;
60610;SDS011;46439;51.164;13.572;2023-06-05T03:30:24;17.60;;;2.80;;
60610;SDS011;46439;51.164;13.572;2023-06-05T03:32:52;6.60;;;3.00;;
60610;SDS011;46439;51.164;13.572;2023-06-05T03:35:21;5.40;;;2.90;;
60610;SDS011;46439;51.164;13.572;2023-06-05T03:37:49;4.80;;;2.90;;
60610;SDS011;46439;51.164;13.572;2023-06-05T03:40:18;5.90;;;3.10;;
60610;SDS011;46439;51.164;13.572;2023-06-05T03:42:47;5.80;;;3.00;;
60610;SDS011;46439;51.164;13.572;2023-06-05T03:45:15;4.70;;;3.20;;
60610;SDS011;46439;51.164;13.572;2023-06-05T03:47:44;8.00;;;3.40;;
60610;SDS011;46439;51.164;13.572;2023-06-05T03:50:15;8.00;;;3.40;;
60610;SDS011;46439;51.164;13.572;2023-06-05T03:52:44;7.60;;;3.40;;
60610;SDS011;46439;51.164;13.572;2023-06-05T03:55:19;5.30;;;3.30;;
60610;SDS011;46439;51.164;13.572;2023-06-05T03:57:48;8.20;;;3.50;;
60610;SDS011;46439;51.164;13.572;2023-06-05T04:00:17;4.60;;;3.00;;
60610;SDS011;46439;51.164;13.572;2023-06-05T04:02:46;7.20;;;3.80;;
60610;SDS011;46439;51.164;13.572;2023-06-05T04:05:14;7.50;;;3.40;;
60610;SDS011;46439;51.164;13.572;2023-06-05T04:07:43;7.50;;;3.70;;
60610;SDS011;46439;51.164;13.572;2023-06-05T04:10:11;7.70;;;3.90;;
60610;SDS011;46439;51.164;13.572;2023-06-05T04:12:40;6.80;;;3.60;;
60610;SDS011;46439;51.164;13.572;2023-06-05T04:15:09;7.00;;;3.80;;
60610;SDS011;46439;51.164;13.572;2023-06-05T04:17:39;9.80;;;3.20;;
60610;SDS011;46439;51.164;13.572;2023-06-05T04:20:08;5.60;;;3.40;;
60610;SDS011;46439;51.164;13.572;2023-06-05T04:22:41;8.30;;;3.40;;
60610;SDS011;46439;51.164;13.572;2023-06-05T04:25:10;6.10;;;3.40;;
60610;SDS011;46439;51.164;13.572;2023-06-05T04:27:39;5.50;;;3.50;;
60610;SDS011;46439;51.164;13.572;2023-06-05T04:30:10;7.50;;;3.80;;
60610;SDS011;46439;51.164;13.572;2023-06-05T04:32:39;5.40;;;3.50;;
60610;SDS011;46439;51.164;13.572;2023-06-05T04:35:09;9.90;;;3.90;;
60610;SDS011;46439;51.164;13.572;2023-06-05T04:37:38;7.40;;;3.60;;
60610;SDS011;46439;51.164;13.572;2023-06-05T04:40:08;5.70;;;3.30;;
60610;SDS011;46439;51.164;13.572;2023-06-05T04:42:36;6.40;;;3.70;;
60610;SDS011;46439;51.164;13.572;2023-06-05T04:45:06;8.80;;;3.70;;
60610;SDS011;46439;51.164;13.572;2023-06-05T04:47:36;8.70;;;3.60;;
60610;SDS011;46439;51.164;13.572;2023-06-05T04:50:05;6.80;;;3.60;;
60610;SDS011;46439;51.164;13.572;2023-06-05T04:52:35;10.50;;;4.30;;
60610;SDS011;46439;51.164;13.572;2023-06-05T04:55:07;8.50;;;4.60;;
60610;SDS011;46439;51.164;13.572;2023-06-05T04:57:35;6.90;;;3.90;;
60610;SDS011;46439;51.164;13.572;2023-06-05T05:00:05;8.30;;;3.80;;
60610;SDS011;46439;51.164;13.572;2023-06-05T05:02:37;8.90;;;3.90;;
60610;SDS011;46439;51.164;13.572;2023-06-05T05:05:06;6.70;;;3.80;;
60610;SDS011;46439;51.164;13.572;2023-06-05T05:07:35;8.00;;;3.80;;
60610;SDS011;46439;51.164;13.572;2023-06-05T05:10:05;12.40;;;3.80;;
60610;SDS011;46439;51.164;13.572;2023-06-05T05:12:35;8.40;;;4.10;;
60610;SDS011;46439;51.164;13.572;2023-06-05T05:15:05;7.30;;;4.00;;
60610;SDS011;46439;51.164;13.572;2023-06-05T05:17:34;9.50;;;4.40;;
60610;SDS011;46439;51.164;13.572;2023-06-05T05:20:03;8.80;;;4.00;;
60610;SDS011;46439;51.164;13.572;2023-06-05T05:22:33;13.30;;;4.20;;
60610;SDS011;46439;51.164;13.572;2023-06-05T05:25:03;6.40;;;3.70;;
60610;SDS011;46439;51.164;13.572;2023-06-05T05:27:32;9.50;;;3.70;;
60610;SDS011;46439;51.164;13.572;2023-06-05T05:30:01;10.70;;;4.50;;
60610;SDS011;46439;51.164;13.572;2023-06-05T05:32:31;8.00;;;3.80;;
60610;SDS011;46439;51.164;13.572;2023-06-05T05:34:59;8.80;;;4.10;;
60610;SDS011;46439;51.164;13.572;2023-06-05T05:37:28;8.20;;;4.00;;
60610;SDS011;46439;51.164;13.572;2023-06-05T05:39:57;9.80;;;4.20;;
60610;SDS011;46439;51.164;13.572;2023-06-05T05:42:25;6.30;;;3.70;;
60610;SDS011;46439;51.164;13.572;2023-06-05T05:44:54;7.90;;;4.20;;
60610;SDS011;46439;51.164;13.572;2023-06-05T05:47:22;6.10;;;3.70;;
60610;SDS011;46439;51.164;13.572;2023-06-05T05:49:51;8.30;;;3.80;;
60610;SDS011;46439;51.164;13.572;2023-06-05T05:52:19;8.80;;;3.70;;
60610;SDS011;46439;51.164;13.572;2023-06-05T05:54:49;7.90;;;3.70;;
60610;SDS011;46439;51.164;13.572;2023-06-05T05:57:18;9.00;;;3.60;;
60610;SDS011;46439;51.164;13.572;2023-06-05T05:59:47;11.10;;;4.00;;
60610;SDS011;46439;51.164;13.572;2023-06-05T06:02:15;8.00;;;3.80;;
60610;SDS011;46439;51.164;13.572;2023-06-05T06:04:44;5.40;;;3.80;;
60610;SDS011;46439;51.164;13.572;2023-06-05T06:07:13;13.00;;;4.00;;
60610;SDS011;46439;51.164;13.572;2023-06-05T06:09:42;9.20;;;3.90;;
60610;SDS011;46439;51.164;13.572;2023-06-05T06:12:11;7.40;;;3.90;;
60610;SDS011;46439;51.164;13.572;2023-06-05T06:14:40;7.60;;;4.20;;
60610;SDS011;46439;51.164;13.572;2023-06-05T06:17:08;9.50;;;3.50;;
60610;SDS011;46439;51.164;13.572;2023-06-05T06:19:37;9.50;;;3.90;;
60610;SDS011;46439;51.164;13.572;2023-06-05T06:22:07;7.30;;;3.80;;
60610;SDS011;46439;51.164;13.572;2023-06-05T06:24:38;9.50;;;3.60;;
60610;SDS011;46439;51.164;13.572;2023-06-05T06:27:08;12.20;;;3.80;;
60610;SDS011;46439;51.164;13.572;2023-06-05T06:29:37;6.90;;;3.60;;
60610;SDS011;46439;51.164;13.572;2023-06-05T06:32:13;6.20;;;3.50;;
60610;SDS011;46439;51.164;13.572;2023-06-05T06:34:41;8.60;;;3.80;;
60610;SDS011;46439;51.164;13.572;2023-06-05T06:37:12;8.80;;;4.10;;
60610;SDS011;46439;51.164;13.572;2023-06-05T06:39:44;10.10;;;3.60;;
60610;SDS011;46439;51.164;13.572;2023-06-05T06:42:13;9.00;;;4.00;;
60610;SDS011;46439;51.164;13.572;2023-06-05T06:44:41;10.20;;;3.70;;
60610;SDS011;46439;51.164;13.572;2023-06-05T06:47:10;11.00;;;3.70;;
60610;SDS011;46439;51.164;13.572;2023-06-05T06:49:40;7.40;;;3.20;;
60610;SDS011;46439;51.164;13.572;2023-06-05T06:52:08;7.90;;;3.80;;
60610;SDS011;46439;51.164;13.572;2023-06-05T06:54:38;10.20;;;3.60;;
60610;SDS011;46439;51.164;13.572;2023-06-05T06:57:06;7.40;;;3.60;;
60610;SDS011;46439;51.164;13.572;2023-06-05T06:59:35;7.10;;;3.50;;
60610;SDS011;46439;51.164;13.572;2023-06-05T07:02:10;6.70;;;3.60;;
60610;SDS011;46439;51.164;13.572;2023-06-05T07:04:40;8.00;;;3.90;;
60610;SDS011;46439;51.164;13.572;2023-06-05T07:07:10;7.20;;;3.80;;
60610;SDS011;46439;51.164;13.572;2023-06-05T07:09:40;9.10;;;3.50;;
60610;SDS011;46439;51.164;13.572;2023-06-05T07:12:10;8.40;;;3.60;;
60610;SDS011;46439;51.164;13.572;2023-06-05T07:14:40;7.40;;;3.50;;
60610;SDS011;46439;51.164;13.572;2023-06-05T07:17:08;13.20;;;3.70;;
60610;SDS011;46439;51.164;13.572;2023-06-05T07:19:37;11.90;;;3.80;;
60610;SDS011;46439;51.164;13.572;2023-06-05T07:22:06;7.80;;;3.90;;
60610;SDS011;46439;51.164;13.572;2023-06-05T07:24:35;8.90;;;3.50;;
60610;SDS011;46439;51.164;13.572;2023-06-05T07:27:05;8.40;;;3.50;;
60610;SDS011;46439;51.164;13.572;2023-06-05T07:29:34;8.40;;;3.40;;
60610;SDS011;46439;51.164;13.572;2023-06-05T07:32:03;9.00;;;3.40;;
60610;SDS011;46439;51.164;13.572;2023-06-05T07:34:32;8.00;;;3.30;;
60610;SDS011;46439;51.164;13.572;2023-06-05T07:37:01;8.20;;;3.40;;
60610;SDS011;46439;51.164;13.572;2023-06-05T07:39:30;5.50;;;3.30;;
60610;SDS011;46439;51.164;13.572;2023-06-05T07:41:59;7.30;;;3.20;;
60610;SDS011;46439;51.164;13.572;2023-06-05T07:44:28;11.10;;;3.50;;
60610;SDS011;46439;51.164;13.572;2023-06-05T07:46:56;6.50;;;3.30;;
60610;SDS011;46439;51.164;13.572;2023-06-05T07:49:25;8.50;;;3.80;;
60610;SDS011;46439;51.164;13.572;2023-06-05T07:51:58;6.70;;;3.40;;
60610;SDS011;46439;51.164;13.572;2023-06-05T07:54:27;6.70;;;2.80;;
60610;SDS011;46439;51.164;13.572;2023-06-05T07:56:56;4.90;;;2.80;;
60610;SDS011;46439;51.164;13.572;2023-06-05T07:59:25;9.90;;;3.00;;
60610;SDS011;46439;51.164;13.572;2023-06-05T08:01:54;8.20;;;2.80;;
60610;SDS011;46439;51.164;13.572;2023-06-05T08:04:23;6.00;;;2.60;;
60610;SDS011;46439;51.164;13.572;2023-06-05T08:06:54;4.80;;;2.20;;
60610;SDS011;46439;51.164;13.572;2023-06-05T08:09:22;11.50;;;2.50;;
60610;SDS011;46439;51.164;13.572;2023-06-05T08:11:51;3.80;;;2.20;;
60610;SDS011;46439;51.164;13.572;2023-06-05T08:14:19;3.90;;;2.30;;
60610;SDS011;46439;51.164;13.572;2023-06-05T08:16:48;5.50;;;2.50;;
60610;SDS011;46439;51.164;13.572;2023-06-05T08:19:16;9.90;;;2.40;;
60610;SDS011;46439;51.164;13.572;2023-06-05T08:21:45;5.70;;;2.20;;
60610;SDS011;46439;51.164;13.572;2023-06-05T08:24:17;5.70;;;2.40;;
60610;SDS011;46439;51.164;13.572;2023-06-05T08:26:45;7.50;;;2.60;;
60610;SDS011;46439;51.164;13.572;2023-06-05T08:29:14;4.40;;;2.30;;
60610;SDS011;46439;51.164;13.572;2023-06-05T08:31:43;5.10;;;2.30;;
60610;SDS011;46439;51.164;13.572;2023-06-05T08:34:11;6.80;;;2.30;;
60610;SDS011;46439;51.164;13.572;2023-06-05T08:36:41;4.20;;;2.40;;
60610;SDS011;46439;51.164;13.572;2023-06-05T08:39:09;6.20;;;2.40;;
60610;SDS011;46439;51.164;13.572;2023-06-05T08:41:39;6.80;;;2.50;;
60610;SDS011;46439;51.164;13.572;2023-06-05T08:44:09;3.80;;;2.40;;
60610;SDS011;46439;51.164;13.572;2023-06-05T08:46:39;6.10;;;2.60;;
60610;SDS011;46439;51.164;13.572;2023-06-05T08:49:10;9.70;;;2.80;;
60610;SDS011;46439;51.164;13.572;2023-06-05T08:51:42;4.70;;;2.30;;
60610;SDS011;46439;51.164;13.572;2023-06-05T08:54:11;5.10;;;2.60;;
60610;SDS011;46439;51.164;13.572;2023-06-05T08:56:42;4.40;;;2.40;;
60610;SDS011;46439;51.164;13.572;2023-06-05T08:59:12;4.10;;;2.30;;
60610;SDS011;46439;51.164;13.572;2023-06-05T09:01:42;2.90;;;2.30;;
60610;SDS011;46439;51.164;13.572;2023-06-05T09:04:13;7.40;;;2.50;;
60610;SDS011;46439;51.164;13.572;2023-06-05T09:06:46;3.60;;;2.50;;
60610;SDS011;46439;51.164;13.572;2023-06-05T09:09:15;6.70;;;2.90;;
60610;SDS011;46439;51.164;13.572;2023-06-05T09:11:44;5.70;;;2.70;;
60610;SDS011;46439;51.164;13.572;2023-06-05T09:14:13;6.70;;;2.90;;
60610;SDS011;46439;51.164;13.572;2023-06-05T09:16:52;3.60;;;2.40;;
60610;SDS011;46439;51.164;13.572;2023-06-05T09:19:20;6.20;;;2.80;;
60610;SDS011;46439;51.164;13.572;2023-06-05T09:21:54;4.80;;;2.70;;
60610;SDS011;46439;51.164;13.572;2023-06-05T09:24:23;5.90;;;2.80;;
60610;SDS011;46439;51.164;13.572;2023-06-05T09:26:55;4.40;;;2.80;;
60610;SDS011;46439;51.164;13.572;2023-06-05T09:29:25;5.90;;;2.90;;
60610;SDS011;46439;51.164;13.572;2023-06-05T09:31:56;4.00;;;2.60;;
60610;SDS011;46439;51.164;13.572;2023-06-05T09:34:26;8.00;;;3.10;;
60610;SDS011;46439;51.164;13.572;2023-06-05T09:36:57;7.10;;;2.70;;
60610;SDS011;46439;51.164;13.572;2023-06-05T09:39:26;4.20;;;3.00;;
60610;SDS011;46439;51.164;13.572;2023-06-05T09:41:57;5.70;;;3.00;;
60610;SDS011;46439;51.164;13.572;2023-06-05T09:44:27;4.00;;;2.80;;
60610;SDS011;46439;51.164;13.572;2023-06-05T09:46:57;3.80;;;2.90;;
60610;SDS011;46439;51.164;13.572;2023-06-05T09:49:28;4.10;;;2.70;;
60610;SDS011;46439;51.164;13.572;2023-06-05T09:51:58;4.20;;;2.60;;
60610;SDS011;46439;51.164;13.572;2023-06-05T09:54:29;3.70;;;2.80;;
60610;SDS011;46439;51.164;13.572;2023-06-05T09:56:58;4.40;;;3.20;;
60610;SDS011;46439;51.164;13.572;2023-06-05T09:59:29;4.60;;;2.70;;
60610;SDS011;46439;51.164;13.572;2023-06-05T10:02:01;4.50;;;2.40;;
60610;SDS011;46439;51.164;13.572;2023-06-05T10:04:37;4.30;;;2.90;;
60610;SDS011;46439;51.164;13.572;2023-06-05T10:07:09;5.50;;;2.70;;
60610;SDS011;46439;51.164;13.572;2023-06-05T10:09:39;8.00;;;3.20;;
60610;SDS011;46439;51.164;13.572;2023-06-05T10:12:09;10.00;;;3.40;;
60610;SDS011;46439;51.164;13.572;2023-06-05T10:14:40;8.40;;;3.10;;
60610;SDS011;46439;51.164;13.572;2023-06-05T10:17:11;4.90;;;3.00;;
60610;SDS011;46439;51.164;13.572;2023-06-05T10:19:42;7.00;;;2.70;;
60610;SDS011;46439;51.164;13.572;2023-06-05T10:24:41;9.20;;;3.20;;
60610;SDS011;46439;51.164;13.572;2023-06-05T10:27:19;6.00;;;2.80;;
60610;SDS011;46439;51.164;13.572;2023-06-05T10:30:21;4.00;;;2.80;;
60610;SDS011;46439;51.164;13.572;2023-06-05T10:33:11;3.30;;;2.60;;
60610;SDS011;46439;51.164;13.572;2023-06-05T10:35:48;6.10;;;2.70;;
60610;SDS011;46439;51.164;13.572;2023-06-05T10:38:27;5.50;;;2.80;;
60610;SDS011;46439;51.164;13.572;2023-06-05T10:40:58;3.30;;;2.50;;
60610;SDS011;46439;51.164;13.572;2023-06-05T10:43:28;3.40;;;2.90;;
60610;SDS011;46439;51.164;13.572;2023-06-05T10:45:59;4.70;;;2.90;;
60610;SDS011;46439;51.164;13.572;2023-06-05T10:51:37;4.60;;;2.80;;
60610;SDS011;46439;51.164;13.572;2023-06-05T10:54:09;5.20;;;2.80;;
60610;SDS011;46439;51.164;13.572;2023-06-05T10:56:54;4.80;;;3.00;;
60610;SDS011;46439;51.164;13.572;2023-06-05T10:59:28;4.50;;;2.90;;
60610;SDS011;46439;51.164;13.572;2023-06-05T11:05:07;3.60;;;2.50;;
60610;SDS011;46439;51.164;13.572;2023-06-05T11:07:37;5.20;;;2.70;;
60610;SDS011;46439;51.164;13.572;2023-06-05T11:10:07;6.20;;;2.70;;
60610;SDS011;46439;51.164;13.572;2023-06-05T11:13:00;5.70;;;2.90;;
60610;SDS011;46439;51.164;13.572;2023-06-05T11:15:37;5.70;;;2.80;;
60610;SDS011;46439;51.164;13.572;2023-06-05T11:18:32;6.80;;;3.00;;
60610;SDS011;46439;51.164;13.572;2023-06-05T11:23:28;7.80;;;2.90;;
60610;SDS011;46439;51.164;13.572;2023-06-05T11:26:17;4.20;;;2.80;;
60610;SDS011;46439;51.164;13.572;2023-06-05T11:29:04;4.20;;;2.90;;
60610;SDS011;46439;51.164;13.572;2023-06-05T11:31:39;6.50;;;2.80;;
60610;SDS011;46439;51.164;13.572;2023-06-05T11:34:12;3.40;;;2.60;;
60610;SDS011;46439;51.164;13.572;2023-06-05T11:36:41;6.60;;;3.10;;
60610;SDS011;46439;51.164;13.572;2023-06-05T11:39:11;4.50;;;2.80;;
60610;SDS011;46439;51.164;13.572;2023-06-05T11:41:44;5.70;;;2.60;;
60610;SDS011;46439;51.164;13.572;2023-06-05T11:44:14;6.30;;;3.00;;
60610;SDS011;46439;51.164;13.572;2023-06-05T11:46:58;4.00;;;2.90;;
60610;SDS011;46439;51.164;13.572;2023-06-05T11:49:26;4.60;;;2.80;;
60610;SDS011;46439;51.164;13.572;2023-06-05T11:51:56;3.90;;;2.70;;
60610;SDS011;46439;51.164;13.572;2023-06-05T11:54:31;4.30;;;2.80;;
60610;SDS011;46439;51.164;13.572;2023-06-05T11:57:07;4.50;;;3.00;;
60610;SDS011;46439;51.164;13.572;2023-06-05T11:59:37;4.60;;;3.20;;
60610;SDS011;46439;51.164;13.572;2023-06-05T12:02:06;7.10;;;3.00;;
60610;SDS011;46439;51.164;13.572;2023-06-05T12:04:34;4.40;;;3.20;;
60610;SDS011;46439;51.164;13.572;2023-06-05T12:07:08;4.50;;;3.20;;
60610;SDS011;46439;51.164;13.572;2023-06-05T12:09:39;3.70;;;3.00;;
60610;SDS011;46439;51.164;13.572;2023-06-05T12:12:17;6.20;;;3.20;;
60610;SDS011;46439;51.164;13.572;2023-06-05T12:14:46;5.80;;;2.80;;
60610;SDS011;46439;51.164;13.572;2023-06-05T12:17:15;5.00;;;3.00;;
60610;SDS011;46439;51.164;13.572;2023-06-05T12:19:44;9.50;;;3.00;;
60610;SDS011;46439;51.164;13.572;2023-06-05T12:22:21;4.00;;;3.00;;
60610;SDS011;46439;51.164;13.572;2023-06-05T12:24:49;3.30;;;2.90;;
60610;SDS011;46439;51.164;13.572;2023-06-05T12:27:29;5.30;;;3.20;;
60610;SDS011;46439;51.164;13.572;2023-06-05T12:30:01;6.70;;;3.30;;
60610;SDS011;46439;51.164;13.572;2023-06-05T12:32:30;3.70;;;2.90;;
60610;SDS011;46439;51.164;13.572;2023-06-05T12:34:59;3.70;;;2.80;;
60610;SDS011;46439;51.164;13.572;2023-06-05T12:37:29;5.30;;;2.80;;
60610;SDS011;46439;51.164;13.572;2023-06-05T12:40:00;3.30;;;3.00;;
60610;SDS011;46439;51.164;13.572;2023-06-05T12:42:34;6.40;;;3.30;;
60610;SDS011;46439;51.164;13.572;2023-06-05T12:45:04;6.60;;;3.20;;
60610;SDS011;46439;51.164;13.572;2023-06-05T12:47:34;5.50;;;3.10;;
60610;SDS011;46439;51.164;13.572;2023-06-05T12:50:04;5.20;;;3.00;;
60610;SDS011;46439;51.164;13.572;2023-06-05T12:52:34;5.80;;;3.10;;
60610;SDS011;46439;51.164;13.572;2023-06-05T12:55:03;4.30;;;3.00;;
60610;SDS011;46439;51.164;13.572;2023-06-05T12:57:33;6.20;;;3.30;;
60610;SDS011;46439;51.164;13.572;2023-06-05T13:00:04;7.00;;;3.30;;
60610;SDS011;46439;51.164;13.572;2023-06-05T13:02:44;4.30;;;3.10;;
60610;SDS011;46439;51.164;13.572;2023-06-05T13:05:16;5.20;;;2.80;;
60610;SDS011;46439;51.164;13.572;2023-06-05T13:07:44;5.90;;;3.40;;
60610;SDS011;46439;51.164;13.572;2023-06-05T13:10:13;5.80;;;3.20;;
60610;SDS011;46439;51.164;13.572;2023-06-05T13:12:41;4.40;;;2.90;;
60610;SDS011;46439;51.164;13.572;2023-06-05T13:15:10;5.10;;;3.40;;
60610;SDS011;46439;51.164;13.572;2023-06-05T13:17:39;5.20;;;2.90;;
60610;SDS011;46439;51.164;13.572;2023-06-05T13:20:08;5.30;;;3.40;;
60610;SDS011;46439;51.164;13.572;2023-06-05T13:22:37;6.60;;;3.20;;
60610;SDS011;46439;51.164;13.572;2023-06-05T13:25:07;6.10;;;3.20;;
60610;SDS011;46439;51.164;13.572;2023-06-05T13:27:37;4.80;;;3.20;;
60610;SDS011;46439;51.164;13.572;2023-06-05T13:30:08;4.50;;;3.40;;
60610;SDS011;46439;51.164;13.572;2023-06-05T13:32:37;5.00;;;3.00;;
60610;SDS011;46439;51.164;13.572;2023-06-05T13:35:07;4.80;;;3.40;;
60610;SDS011;46439;51.164;13.572;2023-06-05T13:37:36;4.20;;;3.10;;
60610;SDS011;46439;51.164;13.572;2023-06-05T13:40:06;5.40;;;3.00;;
60610;SDS011;46439;51.164;13.572;2023-06-05T13:42:37;4.20;;;3.30;;
60610;SDS011;46439;51.164;13.572;2023-06-05T13:45:07;5.70;;;3.30;;
60610;SDS011;46439;51.164;13.572;2023-06-05T13:47:36;6.50;;;3.70;;
60610;SDS011;46439;51.164;13.572;2023-06-05T13:50:05;4.20;;;2.90;;
60610;SDS011;46439;51.164;13.572;2023-06-05T13:52:35;5.40;;;3.40;;
60610;SDS011;46439;51.164;13.572;2023-06-05T13:55:05;5.00;;;3.50;;
60610;SDS011;46439;51.164;13.572;2023-06-05T13:57:34;9.00;;;3.60;;
60610;SDS011;46439;51.164;13.572;2023-06-05T14:00:04;5.00;;;3.40;;
60610;SDS011;46439;51.164;13.572;2023-06-05T14:02:34;6.30;;;3.30;;
60610;SDS011;46439;51.164;13.572;2023-06-05T14:05:03;3.80;;;3.10;;
60610;SDS011;46439;51.164;13.572;2023-06-05T14:07:34;5.60;;;3.20;;
60610;SDS011;46439;51.164;13.572;2023-06-05T14:10:03;4.40;;;3.00;;
60610;SDS011;46439;51.164;13.572;2023-06-05T14:12:33;6.20;;;3.10;;
60610;SDS011;46439;51.164;13.572;2023-06-05T14:15:01;6.00;;;3.30;;
60610;SDS011;46439;51.164;13.572;2023-06-05T14:17:31;5.20;;;3.30;;
60610;SDS011;46439;51.164;13.572;2023-06-05T14:19:59;3.70;;;3.30;;
60610;SDS011;46439;51.164;13.572;2023-06-05T14:22:28;8.70;;;3.60;;
60610;SDS011;46439;51.164;13.572;2023-06-05T14:24:56;8.70;;;3.30;;
60610;SDS011;46439;51.164;13.572;2023-06-05T14:27:25;3.90;;;3.20;;
60610;SDS011;46439;51.164;13.572;2023-06-05T14:29:53;5.10;;;3.40;;
60610;SDS011;46439;51.164;13.572;2023-06-05T14:32:22;5.10;;;3.00;;
60610;SDS011;46439;51.164;13.572;2023-06-05T14:34:51;7.10;;;3.30;;
60610;SDS011;46439;51.164;13.572;2023-06-05T14:37:19;5.30;;;3.20;;
60610;SDS011;46439;51.164;13.572;2023-06-05T14:39:47;4.60;;;3.30;;
60610;SDS011;46439;51.164;13.572;2023-06-05T14:42:17;10.50;;;3.50;;
60610;SDS011;46439;51.164;13.572;2023-06-05T14:44:46;4.00;;;2.90;;
60610;SDS011;46439;51.164;13.572;2023-06-05T14:47:15;6.00;;;3.10;;
60610;SDS011;46439;51.164;13.572;2023-06-05T14:49:43;5.00;;;3.40;;
60610;SDS011;46439;51.164;13.572;2023-06-05T14:52:12;6.50;;;2.90;;
60610;SDS011;46439;51.164;13.572;2023-06-05T14:54:40;4.90;;;3.00;;
60610;SDS011;46439;51.164;13.572;2023-06-05T14:57:09;4.80;;;3.10;;
60610;SDS011;46439;51.164;13.572;2023-06-05T14:59:37;6.60;;;3.30;;
60610;SDS011;46439;51.164;13.572;2023-06-05T15:02:07;5.30;;;3.20;;